Terminal Aerodrome Forecast
Issued by NWS Mt. Holly, NJ

Home | Current Version | Previous Version | Text Only | Print | Product List | Glossary On
Versions: 1 2 3 4 5 6 7 8 9 10 11 12 13 14 15 16 17 18 19 20
000
FTUS41 KPHI 012100 AAA
TAFRDG
TAF AMD
KRDG 012110Z 0121/0218 24005KT P6SM FEW060 SCT080
     FM020600 VRB02KT 6SM BR SCT100
      TEMPO 0209/0213 3SM BR
     FM021400 26007KT 6SM HZ SCT100=

USA.gov is the U.S. government's official web portal to all federal, state and local government web resources and services.